sensor_id;sensor_type;location;lat;lon;timestamp;P1;durP1;ratioP1;P2;durP2;ratioP2
42094;SDS011;27753;55.724;37.612;2022-12-07T00:01:27;4.35;;;2.67;;
42094;SDS011;27753;55.724;37.612;2022-12-07T00:03:55;8.30;;;3.53;;
42094;SDS011;27753;55.724;37.612;2022-12-07T00:06:37;7.32;;;4.05;;
42094;SDS011;27753;55.724;37.612;2022-12-07T00:09:06;6.72;;;3.60;;
42094;SDS011;27753;55.724;37.612;2022-12-07T00:11:35;7.88;;;3.75;;
42094;SDS011;27753;55.724;37.612;2022-12-07T00:14:02;6.80;;;4.03;;
42094;SDS011;27753;55.724;37.612;2022-12-07T00:16:31;9.02;;;4.93;;
42094;SDS011;27753;55.724;37.612;2022-12-07T00:18:58;7.45;;;3.50;;
42094;SDS011;27753;55.724;37.612;2022-12-07T00:21:26;7.57;;;3.60;;
42094;SDS011;27753;55.724;37.612;2022-12-07T00:23:53;7.80;;;4.20;;
42094;SDS011;27753;55.724;37.612;2022-12-07T00:26:23;9.50;;;4.70;;
42094;SDS011;27753;55.724;37.612;2022-12-07T00:28:54;6.50;;;4.38;;
42094;SDS011;27753;55.724;37.612;2022-12-07T00:31:24;10.15;;;2.83;;
42094;SDS011;27753;55.724;37.612;2022-12-07T00:33:51;7.45;;;5.00;;
42094;SDS011;27753;55.724;37.612;2022-12-07T00:36:19;5.00;;;3.15;;
42094;SDS011;27753;55.724;37.612;2022-12-07T00:38:46;5.72;;;4.38;;
42094;SDS011;27753;55.724;37.612;2022-12-07T00:41:13;7.95;;;4.00;;
42094;SDS011;27753;55.724;37.612;2022-12-07T00:43:40;6.43;;;4.07;;
42094;SDS011;27753;55.724;37.612;2022-12-07T00:46:07;5.53;;;2.65;;
42094;SDS011;27753;55.724;37.612;2022-12-07T00:48:34;8.23;;;3.70;;
42094;SDS011;27753;55.724;37.612;2022-12-07T00:51:00;5.28;;;4.05;;
42094;SDS011;27753;55.724;37.612;2022-12-07T00:53:26;9.57;;;4.07;;
42094;SDS011;27753;55.724;37.612;2022-12-07T00:55:52;5.65;;;2.50;;
42094;SDS011;27753;55.724;37.612;2022-12-07T00:58:20;9.18;;;4.35;;
42094;SDS011;27753;55.724;37.612;2022-12-07T01:00:46;6.90;;;4.72;;
42094;SDS011;27753;55.724;37.612;2022-12-07T01:03:12;6.20;;;3.97;;
42094;SDS011;27753;55.724;37.612;2022-12-07T01:05:49;7.15;;;3.80;;
42094;SDS011;27753;55.724;37.612;2022-12-07T01:08:16;6.13;;;3.53;;
42094;SDS011;27753;55.724;37.612;2022-12-07T01:10:42;6.88;;;4.00;;
42094;SDS011;27753;55.724;37.612;2022-12-07T01:13:08;5.63;;;2.47;;
42094;SDS011;27753;55.724;37.612;2022-12-07T01:15:34;5.13;;;3.45;;
42094;SDS011;27753;55.724;37.612;2022-12-07T01:18:03;5.75;;;3.90;;
42094;SDS011;27753;55.724;37.612;2022-12-07T01:20:29;5.63;;;3.50;;
42094;SDS011;27753;55.724;37.612;2022-12-07T01:22:55;4.57;;;4.10;;
42094;SDS011;27753;55.724;37.612;2022-12-07T01:25:21;6.80;;;3.65;;
42094;SDS011;27753;55.724;37.612;2022-12-07T01:27:46;10.13;;;3.83;;
42094;SDS011;27753;55.724;37.612;2022-12-07T01:30:12;8.73;;;3.95;;
42094;SDS011;27753;55.724;37.612;2022-12-07T01:32:38;8.63;;;3.15;;
42094;SDS011;27753;55.724;37.612;2022-12-07T01:35:04;8.63;;;4.65;;
42094;SDS011;27753;55.724;37.612;2022-12-07T01:37:37;8.23;;;4.10;;
42094;SDS011;27753;55.724;37.612;2022-12-07T01:40:04;3.22;;;2.70;;
42094;SDS011;27753;55.724;37.612;2022-12-07T01:42:31;6.70;;;4.00;;
42094;SDS011;27753;55.724;37.612;2022-12-07T01:48:01;3.72;;;3.08;;
42094;SDS011;27753;55.724;37.612;2022-12-07T01:50:27;11.65;;;5.28;;
42094;SDS011;27753;55.724;37.612;2022-12-07T01:52:56;7.20;;;3.75;;
42094;SDS011;27753;55.724;37.612;2022-12-07T01:55:27;5.13;;;3.22;;
42094;SDS011;27753;55.724;37.612;2022-12-07T01:57:54;14.43;;;4.45;;
42094;SDS011;27753;55.724;37.612;2022-12-07T02:00:22;8.40;;;4.03;;
42094;SDS011;27753;55.724;37.612;2022-12-07T02:02:53;9.75;;;4.50;;
42094;SDS011;27753;55.724;37.612;2022-12-07T02:05:26;8.73;;;3.78;;
42094;SDS011;27753;55.724;37.612;2022-12-07T02:07:53;7.88;;;3.50;;
42094;SDS011;27753;55.724;37.612;2022-12-07T02:10:21;4.97;;;2.63;;
42094;SDS011;27753;55.724;37.612;2022-12-07T02:12:51;5.43;;;3.90;;
42094;SDS011;27753;55.724;37.612;2022-12-07T02:15:21;10.35;;;4.50;;
42094;SDS011;27753;55.724;37.612;2022-12-07T02:20:42;7.05;;;4.10;;
42094;SDS011;27753;55.724;37.612;2022-12-07T02:26:44;10.98;;;4.13;;
42094;SDS011;27753;55.724;37.612;2022-12-07T02:31:54;7.10;;;3.30;;
42094;SDS011;27753;55.724;37.612;2022-12-07T02:34:30;5.03;;;3.28;;
42094;SDS011;27753;55.724;37.612;2022-12-07T02:37:03;5.13;;;3.55;;
42094;SDS011;27753;55.724;37.612;2022-12-07T02:39:50;5.25;;;3.78;;
42094;SDS011;27753;55.724;37.612;2022-12-07T02:42:28;6.90;;;3.17;;
42094;SDS011;27753;55.724;37.612;2022-12-07T02:44:58;6.70;;;4.03;;
42094;SDS011;27753;55.724;37.612;2022-12-07T02:47:25;3.65;;;2.40;;
42094;SDS011;27753;55.724;37.612;2022-12-07T02:49:53;5.88;;;3.30;;
42094;SDS011;27753;55.724;37.612;2022-12-07T02:52:20;15.07;;;4.72;;
42094;SDS011;27753;55.724;37.612;2022-12-07T02:54:46;3.95;;;2.55;;
42094;SDS011;27753;55.724;37.612;2022-12-07T02:57:15;10.05;;;3.08;;
42094;SDS011;27753;55.724;37.612;2022-12-07T03:16:01;8.60;;;3.75;;
42094;SDS011;27753;55.724;37.612;2022-12-07T03:18:29;6.22;;;3.42;;
42094;SDS011;27753;55.724;37.612;2022-12-07T03:20:58;9.30;;;4.13;;
42094;SDS011;27753;55.724;37.612;2022-12-07T03:23:29;8.43;;;4.20;;
42094;SDS011;27753;55.724;37.612;2022-12-07T03:26:00;3.60;;;2.63;;
42094;SDS011;27753;55.724;37.612;2022-12-07T03:28:27;8.95;;;3.22;;
42094;SDS011;27753;55.724;37.612;2022-12-07T03:31:04;10.82;;;4.55;;
42094;SDS011;27753;55.724;37.612;2022-12-07T03:33:33;6.03;;;4.32;;
42094;SDS011;27753;55.724;37.612;2022-12-07T03:36:09;5.75;;;3.33;;
42094;SDS011;27753;55.724;37.612;2022-12-07T03:38:41;7.38;;;2.83;;
42094;SDS011;27753;55.724;37.612;2022-12-07T03:41:18;7.60;;;4.38;;
42094;SDS011;27753;55.724;37.612;2022-12-07T03:43:50;8.18;;;5.18;;
42094;SDS011;27753;55.724;37.612;2022-12-07T03:48:52;5.45;;;3.88;;
42094;SDS011;27753;55.724;37.612;2022-12-07T03:51:38;11.20;;;4.53;;
42094;SDS011;27753;55.724;37.612;2022-12-07T03:54:15;7.88;;;3.15;;
42094;SDS011;27753;55.724;37.612;2022-12-07T03:56:49;6.78;;;4.20;;
42094;SDS011;27753;55.724;37.612;2022-12-07T03:59:16;5.32;;;2.95;;
42094;SDS011;27753;55.724;37.612;2022-12-07T04:01:51;9.23;;;4.53;;
42094;SDS011;27753;55.724;37.612;2022-12-07T04:04:19;4.53;;;3.20;;
42094;SDS011;27753;55.724;37.612;2022-12-07T04:06:46;6.78;;;3.75;;
42094;SDS011;27753;55.724;37.612;2022-12-07T04:09:12;11.00;;;5.63;;
42094;SDS011;27753;55.724;37.612;2022-12-07T04:14:05;6.78;;;2.47;;
42094;SDS011;27753;55.724;37.612;2022-12-07T04:16:46;6.30;;;4.82;;
42094;SDS011;27753;55.724;37.612;2022-12-07T04:19:14;8.85;;;4.30;;
42094;SDS011;27753;55.724;37.612;2022-12-07T04:21:41;11.60;;;4.60;;
42094;SDS011;27753;55.724;37.612;2022-12-07T04:24:07;7.97;;;4.15;;
42094;SDS011;27753;55.724;37.612;2022-12-07T04:26:33;12.68;;;5.20;;
42094;SDS011;27753;55.724;37.612;2022-12-07T04:28:59;8.32;;;4.45;;
42094;SDS011;27753;55.724;37.612;2022-12-07T04:31:25;7.88;;;4.55;;
42094;SDS011;27753;55.724;37.612;2022-12-07T04:33:51;8.70;;;4.22;;
42094;SDS011;27753;55.724;37.612;2022-12-07T04:36:17;7.45;;;4.78;;
42094;SDS011;27753;55.724;37.612;2022-12-07T04:38:44;6.00;;;2.50;;
42094;SDS011;27753;55.724;37.612;2022-12-07T04:41:10;7.80;;;5.40;;
42094;SDS011;27753;55.724;37.612;2022-12-07T04:43:37;14.40;;;4.20;;
42094;SDS011;27753;55.724;37.612;2022-12-07T04:46:03;9.05;;;4.30;;
42094;SDS011;27753;55.724;37.612;2022-12-07T04:48:29;8.63;;;4.35;;
42094;SDS011;27753;55.724;37.612;2022-12-07T04:50:55;9.10;;;3.97;;
42094;SDS011;27753;55.724;37.612;2022-12-07T04:53:21;10.55;;;4.97;;
42094;SDS011;27753;55.724;37.612;2022-12-07T04:55:47;12.23;;;5.45;;
42094;SDS011;27753;55.724;37.612;2022-12-07T04:58:12;13.70;;;5.88;;
42094;SDS011;27753;55.724;37.612;2022-12-07T05:00:39;8.63;;;4.45;;
42094;SDS011;27753;55.724;37.612;2022-12-07T05:05:32;6.15;;;3.08;;
42094;SDS011;27753;55.724;37.612;2022-12-07T05:07:58;9.77;;;4.65;;
42094;SDS011;27753;55.724;37.612;2022-12-07T05:10:24;9.93;;;7.38;;
42094;SDS011;27753;55.724;37.612;2022-12-07T05:12:50;10.20;;;4.20;;
42094;SDS011;27753;55.724;37.612;2022-12-07T05:15:16;7.97;;;4.53;;
42094;SDS011;27753;55.724;37.612;2022-12-07T05:17:42;8.65;;;5.03;;
42094;SDS011;27753;55.724;37.612;2022-12-07T05:20:08;10.10;;;5.70;;
42094;SDS011;27753;55.724;37.612;2022-12-07T05:22:34;10.17;;;5.13;;
42094;SDS011;27753;55.724;37.612;2022-12-07T05:25:00;14.97;;;7.53;;
42094;SDS011;27753;55.724;37.612;2022-12-07T05:27:26;9.93;;;4.93;;
42094;SDS011;27753;55.724;37.612;2022-12-07T05:29:52;7.47;;;5.00;;
42094;SDS011;27753;55.724;37.612;2022-12-07T05:32:18;15.55;;;5.60;;
42094;SDS011;27753;55.724;37.612;2022-12-07T05:34:44;11.90;;;6.30;;
42094;SDS011;27753;55.724;37.612;2022-12-07T05:37:10;10.50;;;5.80;;
42094;SDS011;27753;55.724;37.612;2022-12-07T05:39:36;8.82;;;5.72;;
42094;SDS011;27753;55.724;37.612;2022-12-07T05:42:05;10.25;;;6.10;;
42094;SDS011;27753;55.724;37.612;2022-12-07T05:44:37;10.40;;;5.85;;
42094;SDS011;27753;55.724;37.612;2022-12-07T05:47:10;11.30;;;5.85;;
42094;SDS011;27753;55.724;37.612;2022-12-07T05:49:37;8.50;;;5.63;;
42094;SDS011;27753;55.724;37.612;2022-12-07T05:52:03;8.00;;;5.85;;
42094;SDS011;27753;55.724;37.612;2022-12-07T05:54:29;16.30;;;6.20;;
42094;SDS011;27753;55.724;37.612;2022-12-07T05:56:55;11.77;;;6.03;;
42094;SDS011;27753;55.724;37.612;2022-12-07T05:59:21;13.48;;;6.20;;
42094;SDS011;27753;55.724;37.612;2022-12-07T06:01:51;9.43;;;3.93;;
42094;SDS011;27753;55.724;37.612;2022-12-07T06:04:20;11.55;;;6.45;;
42094;SDS011;27753;55.724;37.612;2022-12-07T06:06:46;10.50;;;6.32;;
42094;SDS011;27753;55.724;37.612;2022-12-07T06:09:12;13.50;;;5.50;;
42094;SDS011;27753;55.724;37.612;2022-12-07T06:11:39;13.20;;;5.90;;
42094;SDS011;27753;55.724;37.612;2022-12-07T06:14:23;13.25;;;6.40;;
42094;SDS011;27753;55.724;37.612;2022-12-07T06:16:50;10.77;;;6.93;;
42094;SDS011;27753;55.724;37.612;2022-12-07T06:19:16;9.52;;;6.65;;
42094;SDS011;27753;55.724;37.612;2022-12-07T06:21:42;16.08;;;7.38;;
42094;SDS011;27753;55.724;37.612;2022-12-07T06:24:09;12.00;;;7.43;;
42094;SDS011;27753;55.724;37.612;2022-12-07T06:26:37;10.20;;;6.93;;
42094;SDS011;27753;55.724;37.612;2022-12-07T06:29:03;15.77;;;6.53;;
42094;SDS011;27753;55.724;37.612;2022-12-07T06:31:29;18.38;;;8.32;;
42094;SDS011;27753;55.724;37.612;2022-12-07T06:34:01;13.50;;;7.57;;
42094;SDS011;27753;55.724;37.612;2022-12-07T06:36:33;14.32;;;7.25;;
42094;SDS011;27753;55.724;37.612;2022-12-07T06:38:59;15.43;;;7.55;;
42094;SDS011;27753;55.724;37.612;2022-12-07T06:41:25;13.55;;;6.47;;
42094;SDS011;27753;55.724;37.612;2022-12-07T06:43:51;8.68;;;5.07;;
42094;SDS011;27753;55.724;37.612;2022-12-07T06:46:17;15.23;;;5.47;;
42094;SDS011;27753;55.724;37.612;2022-12-07T06:48:43;15.15;;;7.65;;
42094;SDS011;27753;55.724;37.612;2022-12-07T06:51:09;11.63;;;6.75;;
42094;SDS011;27753;55.724;37.612;2022-12-07T06:53:35;22.15;;;8.77;;
42094;SDS011;27753;55.724;37.612;2022-12-07T06:56:01;12.43;;;7.60;;
42094;SDS011;27753;55.724;37.612;2022-12-07T06:58:27;11.90;;;6.57;;
42094;SDS011;27753;55.724;37.612;2022-12-07T07:00:53;15.15;;;8.30;;
42094;SDS011;27753;55.724;37.612;2022-12-07T07:03:19;9.35;;;3.97;;
42094;SDS011;27753;55.724;37.612;2022-12-07T07:05:45;7.93;;;4.60;;
42094;SDS011;27753;55.724;37.612;2022-12-07T07:08:11;18.17;;;6.57;;
42094;SDS011;27753;55.724;37.612;2022-12-07T07:10:38;7.75;;;5.70;;
42094;SDS011;27753;55.724;37.612;2022-12-07T07:13:04;11.77;;;6.37;;
42094;SDS011;27753;55.724;37.612;2022-12-07T07:15:31;14.13;;;8.17;;
42094;SDS011;27753;55.724;37.612;2022-12-07T07:17:57;7.93;;;4.63;;
42094;SDS011;27753;55.724;37.612;2022-12-07T07:20:23;14.13;;;9.18;;
42094;SDS011;27753;55.724;37.612;2022-12-07T07:22:49;17.70;;;7.28;;
42094;SDS011;27753;55.724;37.612;2022-12-07T07:25:15;16.85;;;7.95;;
42094;SDS011;27753;55.724;37.612;2022-12-07T07:27:41;10.80;;;7.70;;
42094;SDS011;27753;55.724;37.612;2022-12-07T07:30:07;19.85;;;13.02;;
42094;SDS011;27753;55.724;37.612;2022-12-07T07:32:34;10.07;;;5.88;;
42094;SDS011;27753;55.724;37.612;2022-12-07T07:34:59;23.90;;;9.43;;
42094;SDS011;27753;55.724;37.612;2022-12-07T07:37:26;15.82;;;8.48;;
42094;SDS011;27753;55.724;37.612;2022-12-07T07:39:54;16.02;;;10.05;;
42094;SDS011;27753;55.724;37.612;2022-12-07T07:42:20;12.75;;;7.47;;
42094;SDS011;27753;55.724;37.612;2022-12-07T07:44:46;15.95;;;6.53;;
42094;SDS011;27753;55.724;37.612;2022-12-07T07:47:11;18.38;;;6.63;;
42094;SDS011;27753;55.724;37.612;2022-12-07T07:49:40;10.75;;;6.25;;
42094;SDS011;27753;55.724;37.612;2022-12-07T07:52:06;13.65;;;6.15;;
42094;SDS011;27753;55.724;37.612;2022-12-07T07:54:32;18.45;;;8.35;;
42094;SDS011;27753;55.724;37.612;2022-12-07T07:56:58;11.18;;;7.22;;
42094;SDS011;27753;55.724;37.612;2022-12-07T07:59:23;11.50;;;7.13;;
42094;SDS011;27753;55.724;37.612;2022-12-07T08:01:50;10.83;;;6.53;;
42094;SDS011;27753;55.724;37.612;2022-12-07T08:04:16;13.93;;;7.15;;
42094;SDS011;27753;55.724;37.612;2022-12-07T08:06:42;21.85;;;8.80;;
42094;SDS011;27753;55.724;37.612;2022-12-07T08:09:08;20.67;;;11.60;;
42094;SDS011;27753;55.724;37.612;2022-12-07T08:11:34;14.98;;;7.28;;
42094;SDS011;27753;55.724;37.612;2022-12-07T08:14:01;14.07;;;6.93;;
42094;SDS011;27753;55.724;37.612;2022-12-07T08:16:31;14.15;;;7.03;;
42094;SDS011;27753;55.724;37.612;2022-12-07T08:18:56;18.42;;;8.10;;
42094;SDS011;27753;55.724;37.612;2022-12-07T08:21:22;17.02;;;9.02;;
42094;SDS011;27753;55.724;37.612;2022-12-07T08:23:48;13.05;;;6.22;;
42094;SDS011;27753;55.724;37.612;2022-12-07T08:26:15;16.73;;;7.50;;
42094;SDS011;27753;55.724;37.612;2022-12-07T08:28:41;17.13;;;8.38;;
42094;SDS011;27753;55.724;37.612;2022-12-07T08:31:09;15.20;;;6.75;;
42094;SDS011;27753;55.724;37.612;2022-12-07T08:33:38;17.13;;;10.05;;
42094;SDS011;27753;55.724;37.612;2022-12-07T08:36:05;12.05;;;7.03;;
42094;SDS011;27753;55.724;37.612;2022-12-07T08:38:36;14.13;;;6.90;;
42094;SDS011;27753;55.724;37.612;2022-12-07T08:41:02;18.13;;;7.53;;
42094;SDS011;27753;55.724;37.612;2022-12-07T08:43:29;16.05;;;7.80;;
42094;SDS011;27753;55.724;37.612;2022-12-07T08:46:38;10.38;;;6.35;;
42094;SDS011;27753;55.724;37.612;2022-12-07T08:48:46;13.80;;;6.97;;
42094;SDS011;27753;55.724;37.612;2022-12-07T08:51:15;12.68;;;7.82;;
42094;SDS011;27753;55.724;37.612;2022-12-07T08:53:41;18.10;;;7.28;;
42094;SDS011;27753;55.724;37.612;2022-12-07T08:56:08;12.05;;;7.28;;
42094;SDS011;27753;55.724;37.612;2022-12-07T08:58:35;11.50;;;6.75;;
42094;SDS011;27753;55.724;37.612;2022-12-07T09:01:02;16.42;;;6.50;;
42094;SDS011;27753;55.724;37.612;2022-12-07T09:05:55;13.52;;;6.97;;
42094;SDS011;27753;55.724;37.612;2022-12-07T09:08:22;12.52;;;6.90;;
42094;SDS011;27753;55.724;37.612;2022-12-07T09:10:54;17.67;;;8.32;;
42094;SDS011;27753;55.724;37.612;2022-12-07T09:13:20;11.25;;;6.75;;
42094;SDS011;27753;55.724;37.612;2022-12-07T09:15:46;14.88;;;6.72;;
42094;SDS011;27753;55.724;37.612;2022-12-07T09:18:12;16.10;;;8.48;;
42094;SDS011;27753;55.724;37.612;2022-12-07T09:20:38;12.05;;;6.68;;
42094;SDS011;27753;55.724;37.612;2022-12-07T09:23:07;17.58;;;7.97;;
42094;SDS011;27753;55.724;37.612;2022-12-07T09:25:35;14.95;;;8.15;;
42094;SDS011;27753;55.724;37.612;2022-12-07T09:28:01;9.25;;;5.63;;
42094;SDS011;27753;55.724;37.612;2022-12-07T09:30:27;10.65;;;6.75;;
42094;SDS011;27753;55.724;37.612;2022-12-07T09:32:54;11.05;;;6.47;;
42094;SDS011;27753;55.724;37.612;2022-12-07T09:35:21;21.98;;;7.47;;
42094;SDS011;27753;55.724;37.612;2022-12-07T09:37:47;8.95;;;5.82;;
42094;SDS011;27753;55.724;37.612;2022-12-07T09:40:13;15.93;;;7.32;;
42094;SDS011;27753;55.724;37.612;2022-12-07T09:42:42;11.63;;;7.18;;
42094;SDS011;27753;55.724;37.612;2022-12-07T09:45:14;14.32;;;6.22;;
42094;SDS011;27753;55.724;37.612;2022-12-07T09:47:51;11.70;;;7.95;;
42094;SDS011;27753;55.724;37.612;2022-12-07T09:50:21;9.77;;;7.18;;
42094;SDS011;27753;55.724;37.612;2022-12-07T09:52:49;11.27;;;6.13;;
42094;SDS011;27753;55.724;37.612;2022-12-07T09:55:23;18.80;;;7.07;;
42094;SDS011;27753;55.724;37.612;2022-12-07T09:57:53;11.87;;;7.03;;
42094;SDS011;27753;55.724;37.612;2022-12-07T10:00:20;18.33;;;6.85;;
42094;SDS011;27753;55.724;37.612;2022-12-07T10:03:00;10.48;;;6.50;;
42094;SDS011;27753;55.724;37.612;2022-12-07T10:05:31;11.95;;;7.03;;
42094;SDS011;27753;55.724;37.612;2022-12-07T10:08:01;14.00;;;6.30;;
42094;SDS011;27753;55.724;37.612;2022-12-07T10:10:31;11.32;;;7.30;;
42094;SDS011;27753;55.724;37.612;2022-12-07T10:13:00;9.43;;;5.97;;
42094;SDS011;27753;55.724;37.612;2022-12-07T10:18:18;13.65;;;8.30;;
42094;SDS011;27753;55.724;37.612;2022-12-07T10:20:46;10.40;;;6.10;;
42094;SDS011;27753;55.724;37.612;2022-12-07T10:23:17;13.18;;;6.70;;
42094;SDS011;27753;55.724;37.612;2022-12-07T10:25:43;14.77;;;7.50;;
42094;SDS011;27753;55.724;37.612;2022-12-07T10:33:38;16.95;;;6.80;;
42094;SDS011;27753;55.724;37.612;2022-12-07T10:39:14;17.30;;;7.07;;
42094;SDS011;27753;55.724;37.612;2022-12-07T10:41:54;19.98;;;9.05;;
42094;SDS011;27753;55.724;37.612;2022-12-07T10:44:31;10.55;;;6.97;;
42094;SDS011;27753;55.724;37.612;2022-12-07T10:55:25;14.50;;;6.88;;
42094;SDS011;27753;55.724;37.612;2022-12-07T11:06:35;13.13;;;6.93;;
42094;SDS011;27753;55.724;37.612;2022-12-07T11:20:57;12.88;;;7.00;;
42094;SDS011;27753;55.724;37.612;2022-12-07T11:37:32;13.43;;;5.63;;
42094;SDS011;27753;55.724;37.612;2022-12-07T11:45:34;7.95;;;4.97;;
42094;SDS011;27753;55.724;37.612;2022-12-07T11:48:11;11.88;;;6.72;;
42094;SDS011;27753;55.724;37.612;2022-12-07T11:53:17;7.30;;;4.20;;
42094;SDS011;27753;55.724;37.612;2022-12-07T12:03:45;13.40;;;6.47;;
42094;SDS011;27753;55.724;37.612;2022-12-07T12:06:13;12.52;;;6.78;;
42094;SDS011;27753;55.724;37.612;2022-12-07T12:08:43;23.90;;;7.10;;
42094;SDS011;27753;55.724;37.612;2022-12-07T12:17:25;15.75;;;8.50;;
42094;SDS011;27753;55.724;37.612;2022-12-07T12:20:26;11.07;;;7.45;;
42094;SDS011;27753;55.724;37.612;2022-12-07T12:23:19;16.63;;;6.63;;
42094;SDS011;27753;55.724;37.612;2022-12-07T12:26:05;9.15;;;5.20;;
42094;SDS011;27753;55.724;37.612;2022-12-07T12:31:31;16.48;;;7.95;;
42094;SDS011;27753;55.724;37.612;2022-12-07T12:34:02;12.48;;;7.68;;
42094;SDS011;27753;55.724;37.612;2022-12-07T12:39:14;9.73;;;6.00;;
42094;SDS011;27753;55.724;37.612;2022-12-07T12:51:51;8.50;;;6.88;;
42094;SDS011;27753;55.724;37.612;2022-12-07T12:54:26;13.65;;;8.00;;
42094;SDS011;27753;55.724;37.612;2022-12-07T12:59:35;14.02;;;7.43;;
42094;SDS011;27753;55.724;37.612;2022-12-07T13:29:06;10.52;;;7.50;;
42094;SDS011;27753;55.724;37.612;2022-12-07T13:34:00;14.55;;;8.27;;
42094;SDS011;27753;55.724;37.612;2022-12-07T13:36:29;14.85;;;9.23;;
42094;SDS011;27753;55.724;37.612;2022-12-07T13:41:43;16.15;;;8.60;;
42094;SDS011;27753;55.724;37.612;2022-12-07T13:44:11;18.15;;;8.45;;
42094;SDS011;27753;55.724;37.612;2022-12-07T13:49:38;16.23;;;7.60;;
42094;SDS011;27753;55.724;37.612;2022-12-07T13:55:15;14.63;;;7.03;;
42094;SDS011;27753;55.724;37.612;2022-12-07T13:57:40;16.27;;;7.78;;
42094;SDS011;27753;55.724;37.612;2022-12-07T14:00:17;10.65;;;6.50;;
42094;SDS011;27753;55.724;37.612;2022-12-07T14:05:27;15.35;;;8.02;;
42094;SDS011;27753;55.724;37.612;2022-12-07T14:07:54;20.52;;;10.38;;
42094;SDS011;27753;55.724;37.612;2022-12-07T14:10:27;21.85;;;8.68;;
42094;SDS011;27753;55.724;37.612;2022-12-07T14:12:58;14.25;;;7.47;;
42094;SDS011;27753;55.724;37.612;2022-12-07T14:15:27;12.75;;;8.07;;
42094;SDS011;27753;55.724;37.612;2022-12-07T14:17:55;13.45;;;6.90;;
42094;SDS011;27753;55.724;37.612;2022-12-07T14:20:36;9.52;;;5.30;;
42094;SDS011;27753;55.724;37.612;2022-12-07T14:23:03;17.77;;;7.55;;
42094;SDS011;27753;55.724;37.612;2022-12-07T14:25:47;12.15;;;7.22;;
42094;SDS011;27753;55.724;37.612;2022-12-07T14:28:27;16.17;;;8.43;;
42094;SDS011;27753;55.724;37.612;2022-12-07T14:30:55;12.38;;;7.00;;
42094;SDS011;27753;55.724;37.612;2022-12-07T14:33:22;12.93;;;6.70;;
42094;SDS011;27753;55.724;37.612;2022-12-07T14:35:49;15.80;;;8.43;;
42094;SDS011;27753;55.724;37.612;2022-12-07T14:38:15;16.67;;;5.15;;
42094;SDS011;27753;55.724;37.612;2022-12-07T14:40:43;13.80;;;7.38;;
42094;SDS011;27753;55.724;37.612;2022-12-07T14:43:10;16.45;;;7.40;;
42094;SDS011;27753;55.724;37.612;2022-12-07T14:45:39;14.52;;;7.28;;
42094;SDS011;27753;55.724;37.612;2022-12-07T14:48:05;14.10;;;7.88;;
42094;SDS011;27753;55.724;37.612;2022-12-07T14:50:37;17.55;;;8.00;;
42094;SDS011;27753;55.724;37.612;2022-12-07T14:53:09;20.50;;;8.57;;
42094;SDS011;27753;55.724;37.612;2022-12-07T14:55:41;20.27;;;9.10;;
42094;SDS011;27753;55.724;37.612;2022-12-07T14:58:14;13.07;;;5.10;;
42094;SDS011;27753;55.724;37.612;2022-12-07T15:00:41;15.25;;;7.50;;
42094;SDS011;27753;55.724;37.612;2022-12-07T15:03:08;14.55;;;8.73;;
42094;SDS011;27753;55.724;37.612;2022-12-07T15:05:35;18.17;;;10.05;;
42094;SDS011;27753;55.724;37.612;2022-12-07T15:08:03;15.10;;;8.00;;
42094;SDS011;27753;55.724;37.612;2022-12-07T15:10:30;15.77;;;6.97;;
42094;SDS011;27753;55.724;37.612;2022-12-07T15:13:01;17.17;;;10.02;;
42094;SDS011;27753;55.724;37.612;2022-12-07T15:15:47;6.15;;;4.72;;
42094;SDS011;27753;55.724;37.612;2022-12-07T15:18:17;14.77;;;6.95;;
42094;SDS011;27753;55.724;37.612;2022-12-07T15:20:43;10.48;;;7.13;;
42094;SDS011;27753;55.724;37.612;2022-12-07T15:23:10;15.13;;;8.68;;
42094;SDS011;27753;55.724;37.612;2022-12-07T15:25:37;11.77;;;7.13;;
42094;SDS011;27753;55.724;37.612;2022-12-07T15:28:24;15.48;;;8.10;;
42094;SDS011;27753;55.724;37.612;2022-12-07T15:30:50;15.23;;;6.32;;
42094;SDS011;27753;55.724;37.612;2022-12-07T15:33:16;16.67;;;8.98;;
42094;SDS011;27753;55.724;37.612;2022-12-07T15:35:43;19.52;;;8.25;;
42094;SDS011;27753;55.724;37.612;2022-12-07T15:38:10;13.13;;;7.20;;
42094;SDS011;27753;55.724;37.612;2022-12-07T15:40:36;21.75;;;8.80;;
42094;SDS011;27753;55.724;37.612;2022-12-07T15:43:02;12.93;;;7.78;;
42094;SDS011;27753;55.724;37.612;2022-12-07T15:45:28;14.10;;;5.60;;
42094;SDS011;27753;55.724;37.612;2022-12-07T15:47:54;10.18;;;5.72;;
42094;SDS011;27753;55.724;37.612;2022-12-07T15:50:20;17.05;;;8.68;;
42094;SDS011;27753;55.724;37.612;2022-12-07T15:52:47;11.57;;;7.05;;
42094;SDS011;27753;55.724;37.612;2022-12-07T15:55:13;15.23;;;7.73;;
42094;SDS011;27753;55.724;37.612;2022-12-07T15:57:40;17.75;;;8.75;;
42094;SDS011;27753;55.724;37.612;2022-12-07T16:00:06;16.83;;;8.33;;
42094;SDS011;27753;55.724;37.612;2022-12-07T16:02:37;12.45;;;6.55;;
42094;SDS011;27753;55.724;37.612;2022-12-07T16:05:03;22.27;;;8.90;;
42094;SDS011;27753;55.724;37.612;2022-12-07T16:07:29;14.18;;;7.72;;
42094;SDS011;27753;55.724;37.612;2022-12-07T16:09:55;13.52;;;7.78;;
42094;SDS011;27753;55.724;37.612;2022-12-07T16:12:21;18.27;;;9.45;;
42094;SDS011;27753;55.724;37.612;2022-12-07T16:14:47;16.67;;;8.75;;
42094;SDS011;27753;55.724;37.612;2022-12-07T16:17:13;12.95;;;6.53;;
42094;SDS011;27753;55.724;37.612;2022-12-07T16:19:38;10.52;;;7.40;;
42094;SDS011;27753;55.724;37.612;2022-12-07T16:22:04;16.20;;;8.45;;
42094;SDS011;27753;55.724;37.612;2022-12-07T16:24:30;11.07;;;6.20;;
42094;SDS011;27753;55.724;37.612;2022-12-07T16:26:57;18.83;;;8.75;;
42094;SDS011;27753;55.724;37.612;2022-12-07T16:29:23;14.88;;;7.43;;
42094;SDS011;27753;55.724;37.612;2022-12-07T16:31:49;20.85;;;9.35;;
42094;SDS011;27753;55.724;37.612;2022-12-07T16:34:16;20.77;;;10.95;;
42094;SDS011;27753;55.724;37.612;2022-12-07T16:36:42;9.52;;;5.28;;
42094;SDS011;27753;55.724;37.612;2022-12-07T16:39:11;17.55;;;8.77;;
42094;SDS011;27753;55.724;37.612;2022-12-07T16:41:37;23.15;;;8.85;;
42094;SDS011;27753;55.724;37.612;2022-12-07T16:44:04;18.08;;;8.95;;
42094;SDS011;27753;55.724;37.612;2022-12-07T16:46:32;16.35;;;8.05;;
42094;SDS011;27753;55.724;37.612;2022-12-07T16:51:24;14.25;;;8.02;;
42094;SDS011;27753;55.724;37.612;2022-12-07T16:53:51;17.15;;;8.27;;
42094;SDS011;27753;55.724;37.612;2022-12-07T16:56:18;12.50;;;6.15;;
42094;SDS011;27753;55.724;37.612;2022-12-07T16:58:44;7.55;;;5.47;;
42094;SDS011;27753;55.724;37.612;2022-12-07T17:03:56;21.13;;;8.40;;
42094;SDS011;27753;55.724;37.612;2022-12-07T17:06:24;11.70;;;7.55;;
42094;SDS011;27753;55.724;37.612;2022-12-07T17:08:52;17.85;;;8.02;;
42094;SDS011;27753;55.724;37.612;2022-12-07T17:11:19;17.25;;;7.32;;
42094;SDS011;27753;55.724;37.612;2022-12-07T17:13:50;11.40;;;7.05;;
42094;SDS011;27753;55.724;37.612;2022-12-07T17:16:35;16.10;;;6.53;;
42094;SDS011;27753;55.724;37.612;2022-12-07T17:19:05;18.08;;;8.55;;
42094;SDS011;27753;55.724;37.612;2022-12-07T17:21:32;12.13;;;6.63;;
42094;SDS011;27753;55.724;37.612;2022-12-07T17:23:59;23.58;;;10.07;;
42094;SDS011;27753;55.724;37.612;2022-12-07T17:26:26;15.95;;;8.52;;
42094;SDS011;27753;55.724;37.612;2022-12-07T17:28:56;11.68;;;6.43;;
42094;SDS011;27753;55.724;37.612;2022-12-07T17:31:23;14.15;;;7.78;;
42094;SDS011;27753;55.724;37.612;2022-12-07T17:33:52;10.15;;;5.97;;